Terminal Aerodrome Forecast
Issued by NWS

Home | Current Version | Previous Version | Text Only | Print | Product List | Glossary On
Versions: 1 2 3 4 5 6 7 8 9 10 11 12 13 14 15 16 17 18 19 20 21 22 23 24 25 26 27 28 29 30 31 32 33 34 35 36 37 38 39 40 41 42 43 44 45 46 47 48 49 50
000
FTUS45 KBOU 282238 AAC
TAFBJC
TAF AMD
KBJC 282238Z 2823/2918 07005KT P6SM BKN008 OVC018
     FM290200 05007KT 4SM -SN BR BKN006 OVC010
      TEMPO 2904/2907 2SM -SN BR OVC005
     FM290700 07008KT 3/4SM -SN BR OVC005
      TEMPO 2908/2912 1/4SM SN FZFG VV003=

USA.gov is the U.S. government's official web portal to all federal, state and local government web resources and services.